SAS323 ENVA-ENGM
Flight info
| Callsign | SAS323 |
|---|---|
| Flight time | N/A |
| Altitude | 23000 |
| Route | UTUNA1W UTUNA DCT TUTBI DCT BELGU BELGU3M |
| Aircraft | A320/M-SDE3FGHIRWY/LB1 |
Departure
| Time | 2026-04-29 12:49 |
|---|---|
| Airport | Trondheim Airport, Værnes (ENVA) |
Arrival
| Time | N/A |
|---|---|
| Airport | Oslo-Gardermoen International Airport (ENGM) |
| Time | Latitude | Longitude | Altitude | Speed | Heading |
|---|---|---|---|---|---|
| 2026-04-29 12:22 | 63.45501 | 10.91901 | 46 ft | 0 kts | 181° |
| 2026-04-29 12:42 | 63.45503 | 10.91901 | 46 ft | 2 kts | 181° |
| 2026-04-29 12:42 | 63.45523 | 10.91902 | 46 ft | 4 kts | 180° |
| 2026-04-29 12:43 | 63.45550 | 10.91901 | 46 ft | 4 kts | 177° |
| 2026-04-29 12:43 | 63.45577 | 10.91896 | 42 ft | 4 kts | 170° |
| 2026-04-29 12:43 | 63.45600 | 10.91883 | 43 ft | 1 kts | 156° |
| 2026-04-29 12:45 | 63.45594 | 10.91935 | 45 ft | 8 kts | 96° |
| 2026-04-29 12:46 | 63.45594 | 10.92066 | 47 ft | 9 kts | 89° |
| 2026-04-29 12:46 | 63.45595 | 10.92261 | 49 ft | 16 kts | 90° |
| 2026-04-29 12:46 | 63.45594 | 10.92567 | 51 ft | 22 kts | 90° |
| 2026-04-29 12:46 | 63.45594 | 10.92910 | 53 ft | 23 kts | 90° |
| 2026-04-29 12:47 | 63.45593 | 10.93275 | 55 ft | 24 kts | 91° |
| 2026-04-29 12:47 | 63.45592 | 10.93660 | 52 ft | 25 kts | 90° |
| 2026-04-29 12:47 | 63.45646 | 10.93942 | 58 ft | 0 kts | 43° |
| 2026-04-29 12:47 | 63.45668 | 10.93990 | 55 ft | 7 kts | 44° |
| 2026-04-29 12:48 | 63.45703 | 10.94065 | 58 ft | 8 kts | 41° |
| 2026-04-29 12:48 | 63.45753 | 10.94040 | 56 ft | 9 kts | 305° |
| 2026-04-29 12:48 | 63.45758 | 10.93869 | 61 ft | 14 kts | 270° |
| 2026-04-29 12:48 | 63.45757 | 10.93271 | 58 ft | 73 kts | 270° |
| 2026-04-29 12:49 | 63.45759 | 10.91647 | 45 ft | 132 kts | 270° |
| 2026-04-29 12:49 | 63.45760 | 10.89351 | 313 ft | 149 kts | 270° |
| 2026-04-29 12:49 | 63.45769 | 10.87042 | 852 ft | 149 kts | 269° |
| 2026-04-29 12:49 | 63.45774 | 10.84569 | 1110 ft | 171 kts | 269° |
| 2026-04-29 12:50 | 63.45778 | 10.81732 | 1374 ft | 194 kts | 269° |
| 2026-04-29 12:50 | 63.45782 | 10.78518 | 1676 ft | 219 kts | 269° |
| 2026-04-29 12:50 | 63.45783 | 10.75051 | 2362 ft | 226 kts | 269° |
| 2026-04-29 12:50 | 63.45781 | 10.71513 | 3190 ft | 229 kts | 269° |
| 2026-04-29 12:51 | 63.45779 | 10.67924 | 4027 ft | 232 kts | 269° |
| 2026-04-29 12:51 | 63.45779 | 10.64293 | 4863 ft | 235 kts | 269° |
| 2026-04-29 12:51 | 63.45780 | 10.60585 | 5418 ft | 241 kts | 269° |
| 2026-04-29 12:51 | 63.45622 | 10.56881 | 5570 ft | 240 kts | 250° |
| 2026-04-29 12:52 | 63.44731 | 10.53793 | 5606 ft | 239 kts | 220° |
| 2026-04-29 12:52 | 63.43215 | 10.52127 | 5610 ft | 251 kts | 189° |
| 2026-04-29 12:52 | 63.41453 | 10.51975 | 5608 ft | 255 kts | 180° |
| 2026-04-29 12:52 | 63.39715 | 10.52628 | 5608 ft | 256 kts | 156° |
| 2026-04-29 12:53 | 63.38316 | 10.54950 | 5608 ft | 258 kts | 128° |
| 2026-04-29 12:53 | 63.37532 | 10.58645 | 5617 ft | 272 kts | 99° |
| 2026-04-29 12:53 | 63.37450 | 10.62896 | 5732 ft | 281 kts | 90° |
| 2026-04-29 12:53 | 63.37456 | 10.67257 | 6664 ft | 281 kts | 90° |
| 2026-04-29 12:54 | 63.37466 | 10.71627 | 7595 ft | 283 kts | 90° |
| 2026-04-29 12:54 | 63.37370 | 10.76020 | 8436 ft | 286 kts | 102° |
| 2026-04-29 12:54 | 63.36658 | 10.80167 | 9232 ft | 289 kts | 123° |
| 2026-04-29 12:54 | 63.35318 | 10.83528 | 9880 ft | 299 kts | 142° |
| 2026-04-29 12:55 | 63.33411 | 10.85694 | 10119 ft | 321 kts | 166° |
| 2026-04-29 12:55 | 63.31149 | 10.86219 | 10575 ft | 332 kts | 178° |
| 2026-04-29 12:55 | 63.28817 | 10.86445 | 11260 ft | 337 kts | 178° |
| 2026-04-29 12:55 | 63.26460 | 10.86710 | 11963 ft | 341 kts | 177° |
| 2026-04-29 12:56 | 63.24077 | 10.86998 | 12669 ft | 345 kts | 177° |
| 2026-04-29 12:56 | 63.21670 | 10.87297 | 13355 ft | 348 kts | 177° |
| 2026-04-29 12:56 | 63.19239 | 10.87601 | 14025 ft | 352 kts | 177° |
| 2026-04-29 12:56 | 63.16783 | 10.87907 | 14673 ft | 355 kts | 177° |
| 2026-04-29 12:57 | 63.14304 | 10.88178 | 15300 ft | 359 kts | 180° |
| 2026-04-29 12:57 | 63.11812 | 10.87691 | 15900 ft | 362 kts | 191° |
| 2026-04-29 12:57 | 63.09366 | 10.86289 | 16496 ft | 365 kts | 196° |
| 2026-04-29 12:57 | 63.06912 | 10.84766 | 17099 ft | 368 kts | 196° |
| 2026-04-29 12:58 | 63.04436 | 10.83232 | 17681 ft | 371 kts | 196° |
| 2026-04-29 12:58 | 63.01984 | 10.81722 | 18246 ft | 374 kts | 195° |
| 2026-04-29 12:58 | 62.99453 | 10.80172 | 18833 ft | 378 kts | 195° |
| 2026-04-29 12:58 | 62.96906 | 10.78625 | 19417 ft | 381 kts | 195° |
| 2026-04-29 12:59 | 62.94339 | 10.77074 | 20001 ft | 385 kts | 195° |
| 2026-04-29 12:59 | 62.91746 | 10.75505 | 20571 ft | 388 kts | 195° |
| 2026-04-29 12:59 | 62.89134 | 10.73926 | 21116 ft | 391 kts | 195° |
| 2026-04-29 12:59 | 62.86499 | 10.72335 | 21648 ft | 394 kts | 195° |
| 2026-04-29 13:00 | 62.83826 | 10.70840 | 22160 ft | 398 kts | 191° |
| 2026-04-29 13:00 | 62.81075 | 10.70214 | 22665 ft | 401 kts | 182° |
| 2026-04-29 13:00 | 62.78264 | 10.70026 | 23147 ft | 404 kts | 182° |
| 2026-04-29 13:00 | 62.75444 | 10.69830 | 23622 ft | 407 kts | 182° |
| 2026-04-29 13:01 | 62.72604 | 10.69630 | 23933 ft | 410 kts | 182° |
| 2026-04-29 13:01 | 62.69766 | 10.69433 | 24002 ft | 405 kts | 182° |
| 2026-04-29 13:01 | 62.66964 | 10.69240 | 24009 ft | 401 kts | 182° |
| 2026-04-29 13:01 | 62.64180 | 10.69054 | 24009 ft | 400 kts | 182° |
| 2026-04-29 13:02 | 62.61484 | 10.68876 | 24008 ft | 400 kts | 182° |
| 2026-04-29 13:02 | 62.58705 | 10.68687 | 24009 ft | 400 kts | 182° |
| 2026-04-29 13:02 | 62.56022 | 10.68501 | 24009 ft | 400 kts | 182° |
| 2026-04-29 13:02 | 62.53241 | 10.68309 | 24009 ft | 400 kts | 182° |
| 2026-04-29 13:03 | 62.50460 | 10.68114 | 24030 ft | 400 kts | 182° |
| 2026-04-29 13:03 | 62.47642 | 10.67913 | 24397 ft | 415 kts | 185° |
| 2026-04-29 13:03 | 62.44740 | 10.67698 | 24393 ft | 430 kts | 185° |
| 2026-04-29 13:03 | 62.41729 | 10.67486 | 24392 ft | 435 kts | 185° |
| 2026-04-29 13:04 | 62.38696 | 10.67287 | 24398 ft | 437 kts | 185° |
| 2026-04-29 13:04 | 62.35660 | 10.67095 | 24389 ft | 437 kts | 184° |
| 2026-04-29 13:04 | 62.32617 | 10.66901 | 24389 ft | 437 kts | 184° |
| 2026-04-29 13:04 | 62.29580 | 10.66703 | 24392 ft | 437 kts | 184° |
| 2026-04-29 13:05 | 62.26534 | 10.66503 | 24391 ft | 437 kts | 184° |
| 2026-04-29 13:05 | 62.23493 | 10.66301 | 24393 ft | 438 kts | 184° |
| 2026-04-29 13:05 | 62.20454 | 10.66101 | 24396 ft | 438 kts | 184° |
| 2026-04-29 13:05 | 62.17407 | 10.65900 | 24398 ft | 438 kts | 184° |
| 2026-04-29 13:06 | 62.14359 | 10.65700 | 24397 ft | 438 kts | 184° |
| 2026-04-29 13:06 | 62.11312 | 10.65501 | 24398 ft | 438 kts | 184° |
| 2026-04-29 13:06 | 62.08266 | 10.65306 | 24404 ft | 438 kts | 184° |
| 2026-04-29 13:06 | 62.05214 | 10.65112 | 24406 ft | 439 kts | 184° |
| 2026-04-29 13:07 | 62.02161 | 10.64913 | 24409 ft | 439 kts | 184° |
| 2026-04-29 13:07 | 61.99109 | 10.64710 | 24413 ft | 439 kts | 184° |
| 2026-04-29 13:07 | 61.96056 | 10.64500 | 24416 ft | 439 kts | 184° |
| 2026-04-29 13:07 | 61.93004 | 10.64288 | 24418 ft | 439 kts | 184° |
| 2026-04-29 13:08 | 61.89943 | 10.64080 | 24418 ft | 439 kts | 184° |
| 2026-04-29 13:08 | 61.86888 | 10.63879 | 24417 ft | 439 kts | 184° |
| 2026-04-29 13:08 | 61.83832 | 10.63677 | 24420 ft | 440 kts | 184° |
| 2026-04-29 13:08 | 61.80869 | 10.63489 | 24419 ft | 440 kts | 184° |
| 2026-04-29 13:09 | 61.77811 | 10.63300 | 24417 ft | 440 kts | 184° |
| 2026-04-29 13:09 | 61.74792 | 10.63114 | 24416 ft | 440 kts | 183° |
| 2026-04-29 13:09 | 61.71731 | 10.62923 | 24418 ft | 440 kts | 184° |
| 2026-04-29 13:09 | 61.68674 | 10.62726 | 24421 ft | 440 kts | 184° |
| 2026-04-29 13:10 | 61.65612 | 10.62523 | 24419 ft | 440 kts | 183° |
| 2026-04-29 13:10 | 61.62548 | 10.62319 | 24417 ft | 440 kts | 183° |
| 2026-04-29 13:10 | 61.59488 | 10.62119 | 24414 ft | 440 kts | 183° |
| 2026-04-29 13:10 | 61.56428 | 10.61922 | 24414 ft | 440 kts | 183° |
| 2026-04-29 13:11 | 61.53365 | 10.61732 | 24412 ft | 440 kts | 183° |
| 2026-04-29 13:11 | 61.50303 | 10.61549 | 24413 ft | 440 kts | 183° |
| 2026-04-29 13:11 | 61.47243 | 10.61359 | 24410 ft | 440 kts | 183° |
| 2026-04-29 13:11 | 61.44158 | 10.61160 | 24370 ft | 445 kts | 183° |
| 2026-04-29 13:12 | 61.41082 | 10.60965 | 23760 ft | 439 kts | 183° |
| 2026-04-29 13:12 | 61.38042 | 10.60772 | 22846 ft | 434 kts | 183° |
| 2026-04-29 13:12 | 61.35040 | 10.60577 | 22096 ft | 427 kts | 183° |
| 2026-04-29 13:12 | 61.32146 | 10.60394 | 21760 ft | 408 kts | 183° |
| 2026-04-29 13:13 | 61.29355 | 10.60219 | 21264 ft | 395 kts | 183° |
| 2026-04-29 13:13 | 61.26644 | 10.60053 | 20772 ft | 384 kts | 183° |
| 2026-04-29 13:13 | 61.24043 | 10.59899 | 20405 ft | 372 kts | 182° |
| 2026-04-29 13:13 | 61.21462 | 10.60285 | 20316 ft | 376 kts | 170° |
| 2026-04-29 13:14 | 61.18925 | 10.61658 | 19834 ft | 377 kts | 158° |
| 2026-04-29 13:14 | 61.16516 | 10.63715 | 19297 ft | 373 kts | 156° |
| 2026-04-29 13:14 | 61.14131 | 10.65764 | 18788 ft | 370 kts | 156° |
| 2026-04-29 13:14 | 61.11758 | 10.67782 | 18229 ft | 367 kts | 156° |
| 2026-04-29 13:15 | 61.09461 | 10.69723 | 17736 ft | 368 kts | 156° |
| 2026-04-29 13:15 | 61.07089 | 10.71715 | 17348 ft | 366 kts | 156° |
| 2026-04-29 13:15 | 61.04727 | 10.73690 | 16832 ft | 368 kts | 156° |
| 2026-04-29 13:15 | 61.02374 | 10.75660 | 16573 ft | 362 kts | 156° |
| 2026-04-29 13:16 | 61.00048 | 10.77612 | 16213 ft | 360 kts | 156° |
| 2026-04-29 13:16 | 60.97735 | 10.79553 | 15853 ft | 358 kts | 156° |
| 2026-04-29 13:16 | 60.95434 | 10.81480 | 15525 ft | 356 kts | 156° |
| 2026-04-29 13:16 | 60.93148 | 10.83388 | 15179 ft | 354 kts | 156° |
| 2026-04-29 13:17 | 60.91641 | 10.84651 | 14956 ft | 352 kts | 156° |
| 2026-04-29 13:17 | 60.89384 | 10.86556 | 14616 ft | 350 kts | 156° |
| 2026-04-29 13:17 | 60.87141 | 10.88460 | 14286 ft | 348 kts | 156° |
| 2026-04-29 13:17 | 60.84910 | 10.90351 | 13949 ft | 346 kts | 156° |
| 2026-04-29 13:18 | 60.82683 | 10.92231 | 13582 ft | 344 kts | 156° |
| 2026-04-29 13:18 | 60.80479 | 10.94075 | 13348 ft | 339 kts | 159° |
| 2026-04-29 13:18 | 60.78207 | 10.94814 | 13213 ft | 327 kts | 188° |
| 2026-04-29 13:18 | 60.76150 | 10.93332 | 13078 ft | 306 kts | 221° |
| 2026-04-29 13:19 | 60.74792 | 10.90277 | 12839 ft | 280 kts | 250° |
| 2026-04-29 13:19 | 60.74079 | 10.86675 | 12332 ft | 271 kts | 257° |
| 2026-04-29 13:19 | 60.73431 | 10.83071 | 11814 ft | 269 kts | 257° |
| 2026-04-29 13:19 | 60.72779 | 10.79511 | 11408 ft | 265 kts | 253° |
| 2026-04-29 13:20 | 60.71844 | 10.76279 | 11359 ft | 269 kts | 237° |
| 2026-04-29 13:20 | 60.70630 | 10.73320 | 11365 ft | 273 kts | 236° |
| 2026-04-29 13:20 | 60.69403 | 10.70362 | 11367 ft | 274 kts | 236° |
| 2026-04-29 13:20 | 60.68171 | 10.67400 | 11360 ft | 273 kts | 235° |
| 2026-04-29 13:21 | 60.66942 | 10.64447 | 11361 ft | 273 kts | 236° |
| 2026-04-29 13:21 | 60.65615 | 10.61653 | 11359 ft | 278 kts | 223° |
| 2026-04-29 13:21 | 60.63969 | 10.59522 | 11363 ft | 282 kts | 214° |
| 2026-04-29 13:21 | 60.62266 | 10.57542 | 11370 ft | 282 kts | 214° |
| 2026-04-29 13:22 | 60.60508 | 10.55758 | 11363 ft | 285 kts | 199° |
| 2026-04-29 13:22 | 60.58532 | 10.55404 | 11366 ft | 289 kts | 171° |
| 2026-04-29 13:22 | 60.56731 | 10.56717 | 11284 ft | 289 kts | 145° |
| 2026-04-29 13:22 | 60.55334 | 10.59565 | 10945 ft | 281 kts | 115° |
| 2026-04-29 13:23 | 60.54603 | 10.63127 | 10761 ft | 270 kts | 103° |
| 2026-04-29 13:23 | 60.53980 | 10.66727 | 10487 ft | 270 kts | 104° |
| 2026-04-29 13:23 | 60.53363 | 10.70266 | 10264 ft | 269 kts | 104° |
| 2026-04-29 13:23 | 60.52781 | 10.73599 | 10003 ft | 268 kts | 104° |
| 2026-04-29 13:24 | 60.52158 | 10.77153 | 9758 ft | 267 kts | 104° |
| 2026-04-29 13:24 | 60.51536 | 10.80692 | 9508 ft | 265 kts | 105° |
| 2026-04-29 13:24 | 60.50918 | 10.84208 | 9241 ft | 264 kts | 105° |
| 2026-04-29 13:24 | 60.50301 | 10.87713 | 8982 ft | 263 kts | 105° |
| 2026-04-29 13:25 | 60.49684 | 10.91200 | 8756 ft | 262 kts | 106° |
| 2026-04-29 13:25 | 60.48445 | 10.98119 | 8197 ft | 260 kts | 107° |
| 2026-04-29 13:25 | 60.47831 | 11.01560 | 7962 ft | 259 kts | 107° |
| 2026-04-29 13:26 | 60.47223 | 11.04978 | 7730 ft | 257 kts | 107° |
| 2026-04-29 13:26 | 60.46531 | 11.08323 | 7479 ft | 258 kts | 118° |
| 2026-04-29 13:26 | 60.45453 | 11.11218 | 7212 ft | 257 kts | 130° |
| 2026-04-29 13:26 | 60.44289 | 11.13962 | 6972 ft | 256 kts | 130° |
| 2026-04-29 13:27 | 60.43132 | 11.16691 | 6743 ft | 255 kts | 130° |
| 2026-04-29 13:27 | 60.41985 | 11.19408 | 6562 ft | 251 kts | 130° |
| 2026-04-29 13:27 | 60.40778 | 11.21869 | 6420 ft | 243 kts | 148° |
| 2026-04-29 13:27 | 60.39243 | 11.22955 | 6291 ft | 230 kts | 179° |
| 2026-04-29 13:28 | 60.37717 | 11.22511 | 6168 ft | 218 kts | 199° |
| 2026-04-29 13:28 | 60.36287 | 11.21666 | 6035 ft | 211 kts | 199° |
| 2026-04-29 13:28 | 60.34889 | 11.20839 | 5877 ft | 208 kts | 199° |
| 2026-04-29 13:28 | 60.33521 | 11.20038 | 5672 ft | 207 kts | 199° |
| 2026-04-29 13:29 | 60.32151 | 11.19241 | 5571 ft | 196 kts | 199° |
| 2026-04-29 13:29 | 60.30894 | 11.18509 | 5425 ft | 184 kts | 200° |
| 2026-04-29 13:29 | 60.29717 | 11.17826 | 5310 ft | 166 kts | 200° |
| 2026-04-29 13:29 | 60.28598 | 11.17170 | 4715 ft | 176 kts | 200° |
| 2026-04-29 13:30 | 60.27446 | 11.16500 | 4445 ft | 170 kts | 199° |
| 2026-04-29 13:30 | 60.26302 | 11.15835 | 4098 ft | 170 kts | 199° |
| 2026-04-29 13:30 | 60.25189 | 11.15189 | 3826 ft | 165 kts | 199° |
| 2026-04-29 13:30 | 60.24098 | 11.14557 | 3613 ft | 162 kts | 198° |
| 2026-04-29 13:31 | 60.22882 | 11.14581 | 3747 ft | 195 kts | 162° |
| 2026-04-29 13:31 | 60.21779 | 11.16388 | 4249 ft | 217 kts | 122° |
| 2026-04-29 13:31 | 60.21293 | 11.19305 | 4834 ft | 226 kts | 99° |
| 2026-04-29 13:31 | 60.21081 | 11.22445 | 4977 ft | 227 kts | 96° |
| 2026-04-29 13:32 | 60.20913 | 11.25600 | 5014 ft | 227 kts | 95° |
| 2026-04-29 13:32 | 60.20750 | 11.28744 | 5006 ft | 226 kts | 95° |
| 2026-04-29 13:32 | 60.20584 | 11.31887 | 5010 ft | 227 kts | 95° |
| 2026-04-29 13:32 | 60.20417 | 11.35027 | 5011 ft | 225 kts | 95° |
| 2026-04-29 13:33 | 60.20251 | 11.38164 | 5010 ft | 226 kts | 95° |
| 2026-04-29 13:33 | 60.20084 | 11.41300 | 5010 ft | 226 kts | 95° |
| 2026-04-29 13:33 | 60.19919 | 11.44435 | 5013 ft | 225 kts | 95° |
| 2026-04-29 13:33 | 60.19760 | 11.47441 | 5012 ft | 225 kts | 95° |
| 2026-04-29 13:34 | 60.19592 | 11.50578 | 5006 ft | 226 kts | 95° |
| 2026-04-29 13:34 | 60.19429 | 11.53582 | 5008 ft | 225 kts | 95° |
| 2026-04-29 13:34 | 60.19281 | 11.56720 | 5009 ft | 225 kts | 88° |
| 2026-04-29 13:34 | 60.19613 | 11.59732 | 5007 ft | 221 kts | 59° |
| 2026-04-29 13:35 | 60.20582 | 11.62069 | 4872 ft | 219 kts | 31° |
| 2026-04-29 13:35 | 60.21952 | 11.63162 | 4760 ft | 210 kts | 4° |
| 2026-04-29 13:35 | 60.23381 | 11.62926 | 4664 ft | 206 kts | 338° |
| 2026-04-29 13:35 | 60.24624 | 11.61613 | 4543 ft | 205 kts | 326° |
| 2026-04-29 13:36 | 60.25844 | 11.60123 | 4434 ft | 206 kts | 327° |
| 2026-04-29 13:36 | 60.27070 | 11.58640 | 4308 ft | 205 kts | 326° |
| 2026-04-29 13:36 | 60.28292 | 11.57164 | 4212 ft | 205 kts | 326° |
| 2026-04-29 13:36 | 60.29515 | 11.55684 | 4086 ft | 205 kts | 326° |
| 2026-04-29 13:37 | 60.30736 | 11.54201 | 4002 ft | 206 kts | 326° |
| 2026-04-29 13:37 | 60.31966 | 11.52701 | 4010 ft | 207 kts | 326° |
| 2026-04-29 13:37 | 60.33194 | 11.51201 | 4004 ft | 207 kts | 326° |
| 2026-04-29 13:37 | 60.34427 | 11.49699 | 4016 ft | 207 kts | 327° |
| 2026-04-29 13:38 | 60.35654 | 11.48203 | 4002 ft | 205 kts | 326° |
| 2026-04-29 13:38 | 60.36879 | 11.46709 | 4004 ft | 205 kts | 326° |
| 2026-04-29 13:38 | 60.38067 | 11.45124 | 3998 ft | 204 kts | 315° |
| 2026-04-29 13:38 | 60.38883 | 11.42832 | 4004 ft | 202 kts | 291° |
| 2026-04-29 13:39 | 60.39166 | 11.40067 | 3883 ft | 202 kts | 268° |
| 2026-04-29 13:39 | 60.38855 | 11.37334 | 3767 ft | 201 kts | 244° |
| 2026-04-29 13:39 | 60.38020 | 11.35093 | 3683 ft | 200 kts | 221° |
| 2026-04-29 13:39 | 60.36856 | 11.33531 | 3906 ft | 204 kts | 214° |
| 2026-04-29 13:40 | 60.35650 | 11.31974 | 3992 ft | 206 kts | 218° |
| 2026-04-29 13:40 | 60.34609 | 11.30028 | 4006 ft | 204 kts | 234° |
| 2026-04-29 13:40 | 60.33806 | 11.27715 | 4039 ft | 197 kts | 238° |
| 2026-04-29 13:40 | 60.33070 | 11.25437 | 4032 ft | 191 kts | 238° |
| 2026-04-29 13:41 | 60.32360 | 11.23230 | 3996 ft | 183 kts | 238° |
| 2026-04-29 13:41 | 60.31672 | 11.21096 | 3924 ft | 182 kts | 238° |
| 2026-04-29 13:41 | 60.30896 | 11.19105 | 3623 ft | 184 kts | 223° |
| 2026-04-29 13:41 | 60.29778 | 11.17854 | 3431 ft | 182 kts | 200° |
| 2026-04-29 13:42 | 60.28563 | 11.17140 | 2979 ft | 185 kts | 198° |
| 2026-04-29 13:42 | 60.27332 | 11.16431 | 2549 ft | 183 kts | 198° |
| 2026-04-29 13:42 | 60.26118 | 11.15728 | 2148 ft | 180 kts | 198° |
| 2026-04-29 13:42 | 60.24922 | 11.15034 | 1768 ft | 176 kts | 198° |
| 2026-04-29 13:43 | 60.23799 | 11.14383 | 1517 ft | 162 kts | 197° |
| 2026-04-29 13:43 | 60.22739 | 11.13768 | 1280 ft | 155 kts | 197° |
| 2026-04-29 13:43 | 60.21733 | 11.13188 | 1048 ft | 143 kts | 197° |
| 2026-04-29 13:43 | 60.20808 | 11.12643 | 856 ft | 135 kts | 195° |